• Join FlightAware (Why Join?)
  • Login
  • US Flag 
10:34PM EDT


 

Airport Tracker/Info


-or-


 

Live Flight TrackerFlight Track Log ✈ ASQ5025 ✈ 29-Apr-2013 ✈ KLGA - KBTV

Flight Track Log - Related Links

Times and Time Zones

All times are in EDT time to prevent confusion due to time zone crossing. See the ASQ5025 flight status page for this flight to view local times or setup timezone preferences in your user account.

Time Position Orientation Groundspeed Altitude Reporting Facility
EDT Latitude Longitude Course Direction KTS MPH feet Rate Location/Type
09:35AM 40.7481 -73.7769 45° Northeast 244 281 4,500  Level Boston Center
09:36AM 40.8111 -73.7400 24° Northeast 244 281 6,600 2,520 Climbing Boston Center
09:37AM 40.8806 -73.6864 30° Northeast 268 308 9,600 2,160 Climbing Boston Center
09:38AM 40.9603 -73.6331 27° Northeast 294 338 11,000 660 Climbing Boston Center
09:39AM 41.0419 -73.5822 25° Northeast 320 368 11,000 1,140 Level Boston Center
09:40AM 41.5895 -73.1474 45° Northeast  Level FlightAware Approximate
09:40AM 41.1386 -73.5233 25° Northeast 343 395 13,400  Level Boston Center
09:41AM 41.2203 -73.4750 24° Northeast 343 395 14,900 1,800 Climbing Boston Center
09:42AM 41.3228 -73.4131 24° Northeast 353 406 17,000 1,860 Climbing Boston Center
09:43AM 41.4108 -73.3589 25° Northeast 376 433 18,600 1,680 Climbing Boston Center
09:44AM 41.5094 -73.2856 29° Northeast 389 448 20,400 1,860 Climbing Boston Center
09:45AM 41.6136 -73.2814 North 366 421 22,400 1,560 Climbing Boston Center
09:46AM 41.7261 -73.2772 North 379 436 23,600 1,020 Climbing Boston Center
09:47AM 41.8431 -73.2733 North 400 460 24,500 900 Climbing Boston Center
09:48AM 41.9658 -73.2694 North 421 484 25,400 900 Climbing Boston Center
09:49AM 42.0889 -73.2822 356° North 428 493 26,400 1,140 Climbing Boston Center
09:50AM 42.2156 -73.3286 345° North 434 499 27,700 1,260 Climbing Boston Center
09:51AM 42.3408 -73.3192 North 434 499 29,000 600 Climbing Boston Center
09:52AM 42.4533 -73.3011 North 448 516 29,000  Level Boston Center
09:53AM 42.5786 -73.2858 North 448 516 29,000  Level Boston Center
09:54AM 42.7142 -73.2878 359° North 442 509 29,000  Level Boston Center
09:55AM 42.8392 -73.2783 North 442 509 29,000 -300 Level Boston Center
09:56AM 42.9642 -73.2714 North 442 509 28,500 -840 Descending Boston Center
09:57AM 43.0872 -73.2589 North 442 509 27,400 -1,140 Descending Boston Center
09:58AM 43.2167 -73.2519 North 442 509 26,300 -1,680 Descending Boston Center
09:59AM 43.3417 -73.2422 North 447 514 24,100 -2,340 Descending Boston Center
10:00AM 43.4458 -73.2350 North 440 506 21,700 -2,520 Descending Boston Center
10:01AM 43.5647 -73.2222 North 428 493 19,100 -2,460 Descending Boston Center
10:02AM 43.6794 -73.2153 North 418 481 16,800 -2,460 Descending Boston Center
10:03AM 43.7900 -73.2050 North 407 468 14,200 -2,820 Descending Boston Center
10:04AM 43.9044 -73.2036 North 386 444 11,200 -1,860 Descending Boston Center
10:05AM 44.0067 -73.2078 358° North 364 419 10,500 -1,200 Descending Boston Center
10:06AM 44.1044 -73.2178 356° North 354 407 8,900 -1,320 Descending Boston Center
10:07AM 44.1878 -73.2247 357° North 316 364 7,900 -1,320 Descending Boston Center
10:08AM 44.2689 -73.2461 349° North 292 336 6,300 -1,680 Descending Boston Center
10:09AM 44.3458 -73.2703 347° North 287 330 4,600 -1,500 Descending Boston Center
10:10AM 44.4164 -73.2975 345° North 275 316 3,300 -840 Descending Boston Center
10:11AM 44.4767 -73.3303 339° North 250 288 3,000 -420 Descending Boston Center
10:13AM 44.5603 -73.2908 19° North 166 191 2,200 -420 Descending Boston Center
10:14AM 44.5336 -73.2525 134° Southeast 122 140 1,800 -540 Descending Boston Center
10:15AM 44.5067 -73.2114 133° Southeast 134 154 1,200 -660 Descending Boston Center
10:16AM 44.4839 -73.1733 130° Southeast 134 154 500 -480 Descending Boston Center
10:17AM 44.4736 -73.1528 125° Southeast 129 148 300 -240 Descending Boston Center